Terminal Aerodrome Forecast
Issued by NWS

Home | Current Version | Previous Version | Text Only | Print | Product List | Glossary On
Versions: 1 2 3 4 5 6 7 8 9 10 11 12 13 14 15 16 17 18 19 20 21
000
FTUS43 KDLH 031700
TAFHIB
TAF
KHIB 031739Z 0318/0418 25008KT 1SM -SN BR OVC018
      TEMPO 0318/0320 3SM -SN BKN025
     FM032000 31016G28KT 6SM BLSN BKN035
     FM040500 30012KT P6SM SCT025
     FM041500 31011G18KT P6SM VCSH SCT030=

USA.gov is the U.S. government's official web portal to all federal, state and local government web resources and services.